createdAt,value
2019-05-03T00:01:25.805Z,9.70
2019-05-03T00:03:56.273Z,9.40
2019-05-03T00:06:26.949Z,9.80
2019-05-03T00:08:57.430Z,9.60
2019-05-03T00:11:27.875Z,9.60
2019-05-03T00:14:01.669Z,9.70
2019-05-03T00:16:34.927Z,9.60
2019-05-03T00:19:05.273Z,9.40
2019-05-03T00:21:35.570Z,9.60
2019-05-03T00:24:06.251Z,9.70
2019-05-03T00:26:36.709Z,9.90
2019-05-03T00:29:06.976Z,9.60
2019-05-03T00:31:37.719Z,9.70
2019-05-03T00:34:12.473Z,9.50
2019-05-03T00:36:49.930Z,9.70
2019-05-03T00:39:32.637Z,9.50
2019-05-03T00:42:03.586Z,9.60
2019-05-03T00:44:34.511Z,9.50
2019-05-03T00:47:04.957Z,9.60
2019-05-03T00:49:35.490Z,9.50
2019-05-03T00:52:06.185Z,9.10
2019-05-03T00:54:36.437Z,9.20
2019-05-03T00:57:07.089Z,9.20
2019-05-03T00:59:37.799Z,9.40
2019-05-03T01:02:08.617Z,9.30
2019-05-03T01:04:38.922Z,9.10
2019-05-03T01:07:11.566Z,9.00
2019-05-03T01:09:42.406Z,9.10
2019-05-03T01:12:12.850Z,9.00
2019-05-03T01:14:44.780Z,8.90
2019-05-03T01:17:15.057Z,9.10
2019-05-03T01:19:45.683Z,8.90
2019-05-03T01:22:16.285Z,8.80
2019-05-03T01:24:46.565Z,9.00
2019-05-03T01:27:17.509Z,8.80
2019-05-03T01:29:47.941Z,8.70
2019-05-03T01:32:18.563Z,8.90
2019-05-03T01:34:48.883Z,9.00
2019-05-03T01:37:19.574Z,8.50
2019-05-03T01:39:49.887Z,8.70
2019-05-03T01:42:20.253Z,8.70
2019-05-03T01:44:52.226Z,8.70
2019-05-03T01:47:30.019Z,8.60
2019-05-03T01:50:08.402Z,8.70
2019-05-03T01:52:41.991Z,8.60
2019-05-03T01:55:15.512Z,8.40
2019-05-03T01:57:44.519Z,8.50
2019-05-03T02:00:22.463Z,8.70
2019-05-03T02:03:01.674Z,8.50
2019-05-03T02:05:46.956Z,8.50
2019-05-03T02:08:17.271Z,8.70
2019-05-03T02:10:51.784Z,8.50
2019-05-03T02:13:22.968Z,8.70
2019-05-03T02:15:53.742Z,8.60
2019-05-03T02:18:25.229Z,8.60
2019-05-03T02:20:55.789Z,8.50
2019-05-03T02:23:26.240Z,8.60
2019-05-03T02:25:59.138Z,8.60
2019-05-03T02:28:28.494Z,8.50
2019-05-03T02:30:59.031Z,8.70
2019-05-03T02:33:32.706Z,8.60
2019-05-03T02:36:03.719Z,8.60
2019-05-03T02:38:34.397Z,8.50
2019-05-03T02:41:04.774Z,8.90
2019-05-03T02:43:40.353Z,8.90
2019-05-03T02:46:25.356Z,8.90
2019-05-03T02:49:06.448Z,8.80
2019-05-03T02:51:36.878Z,9.10
2019-05-03T02:54:07.364Z,9.00
2019-05-03T02:56:38.087Z,8.70
2019-05-03T02:59:08.841Z,8.70
2019-05-03T03:01:39.560Z,8.80
2019-05-03T03:04:10.414Z,8.90
2019-05-03T03:06:45.339Z,8.50
2019-05-03T03:09:17.792Z,8.80
2019-05-03T03:11:50.173Z,8.60
2019-05-03T03:14:25.427Z,8.50
2019-05-03T03:16:57.982Z,8.50
2019-05-03T03:19:30.101Z,8.20
2019-05-03T03:22:05.835Z,8.50
2019-05-03T03:24:41.780Z,8.50
2019-05-03T03:27:16.451Z,8.20
2019-05-03T03:29:51.127Z,8.40
2019-05-03T03:32:29.225Z,8.20
2019-05-03T03:35:20.358Z,8.30
2019-05-03T03:37:46.451Z,8.20
2019-05-03T03:40:18.207Z,8.40
2019-05-03T03:42:51.128Z,8.40
2019-05-03T03:45:21.605Z,8.10
2019-05-03T03:47:56.309Z,8.20
2019-05-03T03:50:27.591Z,8.20
2019-05-03T03:52:58.908Z,8.20
2019-05-03T03:55:32.334Z,8.00
2019-05-03T03:58:06.172Z,8.30
2019-05-03T04:00:36.395Z,8.50
2019-05-03T04:03:06.944Z,8.20
2019-05-03T04:05:37.385Z,8.20
2019-05-03T04:08:08.133Z,8.40
2019-05-03T04:10:39.969Z,8.40
2019-05-03T04:13:12.033Z,8.20
2019-05-03T04:16:05.545Z,8.30
2019-05-03T04:18:45.949Z,8.50
2019-05-03T04:21:16.417Z,8.40
2019-05-03T04:23:46.730Z,8.20
2019-05-03T04:26:17.589Z,8.20
2019-05-03T04:28:49.185Z,8.20
2019-05-03T04:31:19.975Z,8.30
2019-05-03T04:33:50.672Z,8.60
2019-05-03T04:36:21.323Z,8.50
2019-05-03T04:38:51.589Z,8.20
2019-05-03T04:41:21.978Z,8.60
2019-05-03T04:43:55.239Z,8.60
2019-05-03T04:46:25.900Z,8.50
2019-05-03T04:48:56.887Z,8.70
2019-05-03T04:51:27.240Z,8.50
2019-05-03T04:54:16.348Z,8.50
2019-05-03T04:56:47.472Z,8.50
2019-05-03T04:59:17.844Z,8.50
2019-05-03T05:01:48.268Z,8.50
2019-05-03T05:04:18.639Z,8.50
2019-05-03T05:06:49.369Z,8.50
2019-05-03T05:09:19.633Z,8.60
2019-05-03T05:11:50.377Z,8.60
2019-05-03T05:14:20.931Z,9.00
2019-05-03T05:16:51.594Z,8.50
2019-05-03T05:19:28.065Z,8.80
2019-05-03T05:22:05.338Z,8.80
2019-05-03T05:24:35.194Z,9.00
2019-05-03T05:27:18.932Z,9.00
2019-05-03T05:29:49.649Z,9.00
2019-05-03T05:32:20.399Z,9.00
2019-05-03T05:34:50.719Z,9.10
2019-05-03T05:37:21.618Z,9.00
2019-05-03T05:39:51.951Z,8.90
2019-05-03T05:42:22.340Z,9.20
2019-05-03T05:44:52.957Z,9.10
2019-05-03T05:47:42.226Z,9.10
2019-05-03T05:50:17.726Z,9.10
2019-05-03T05:52:48.010Z,9.10
2019-05-03T05:55:37.151Z,9.30
2019-05-03T05:58:26.835Z,9.40
2019-05-03T06:01:05.345Z,9.30
2019-05-03T06:03:35.745Z,9.30
2019-05-03T06:06:07.804Z,9.30
2019-05-03T06:08:44.898Z,9.40
2019-05-03T06:11:37.390Z,9.60
2019-05-03T06:14:20.690Z,9.40
2019-05-03T06:16:58.822Z,9.60
2019-05-03T06:19:42.518Z,9.60
2019-05-03T06:22:25.656Z,9.50
2019-05-03T06:25:01.171Z,9.60
2019-05-03T06:27:35.736Z,9.50
2019-05-03T06:30:30.094Z,9.70
2019-05-03T06:33:01.490Z,9.90
2019-05-03T06:35:31.850Z,9.70
2019-05-03T06:38:02.461Z,9.80
2019-05-03T06:40:33.003Z,10.00
2019-05-03T06:43:09.815Z,10.10
2019-05-03T06:45:35.561Z,10.20
2019-05-03T06:48:06.011Z,10.20
2019-05-03T06:50:36.284Z,10.10
2019-05-03T06:53:12.672Z,10.20
2019-05-03T06:55:40.092Z,10.30
2019-05-03T06:58:10.915Z,10.10
2019-05-03T07:00:56.973Z,10.00
2019-05-03T07:03:41.207Z,10.20
2019-05-03T07:06:34.418Z,10.20
2019-05-03T07:09:14.694Z,10.40
2019-05-03T07:11:45.365Z,10.70
2019-05-03T07:14:15.993Z,10.50
2019-05-03T07:16:46.399Z,10.30
2019-05-03T07:19:16.702Z,10.40
2019-05-03T07:21:47.379Z,10.50
2019-05-03T07:24:17.675Z,10.70
2019-05-03T07:26:48.504Z,10.50
2019-05-03T07:29:18.759Z,10.40
2019-05-03T07:31:49.202Z,10.30
2019-05-03T07:34:19.683Z,10.50
2019-05-03T07:36:50.154Z,10.50
2019-05-03T07:39:21.220Z,10.40
2019-05-03T07:41:52.009Z,10.60
2019-05-03T07:44:22.332Z,10.50
2019-05-03T07:46:55.340Z,10.40
2019-05-03T07:49:25.357Z,10.70
2019-05-03T07:51:55.710Z,10.50
2019-05-03T07:54:25.968Z,10.60
2019-05-03T07:57:01.772Z,10.70
2019-05-03T07:59:32.077Z,10.60
2019-05-03T08:02:02.711Z,10.70
2019-05-03T08:04:33.332Z,10.70
2019-05-03T08:07:04.586Z,10.70
2019-05-03T08:09:35.414Z,10.50
2019-05-03T08:12:05.732Z,10.50
2019-05-03T08:14:36.058Z,10.50
2019-05-03T08:17:07.268Z,10.70
2019-05-03T08:19:37.854Z,10.40
2019-05-03T08:22:08.289Z,10.50
2019-05-03T08:24:38.548Z,10.80
2019-05-03T08:27:08.824Z,10.40
2019-05-03T08:29:39.838Z,10.80
2019-05-03T08:32:29.042Z,10.60
2019-05-03T08:35:17.043Z,10.80
2019-05-03T08:37:50.123Z,10.40
2019-05-03T08:40:21.712Z,10.50
2019-05-03T08:42:51.986Z,10.40
2019-05-03T08:45:22.810Z,10.40
2019-05-03T08:47:55.253Z,10.70
2019-05-03T08:50:25.846Z,10.50
2019-05-03T08:52:56.455Z,10.40
2019-05-03T08:55:26.825Z,10.50
2019-05-03T08:57:57.161Z,10.70
2019-05-03T09:00:29.945Z,10.80
2019-05-03T09:03:00.257Z,11.00
2019-05-03T09:05:30.485Z,10.80
2019-05-03T09:08:01.132Z,11.00
2019-05-03T09:10:46.349Z,11.10
2019-05-03T09:13:18.599Z,11.20
2019-05-03T09:15:49.157Z,11.30
2019-05-03T09:18:19.518Z,11.00
2019-05-03T09:20:49.995Z,11.00
2019-05-03T09:23:23.380Z,11.10
2019-05-03T09:25:54.745Z,10.90
2019-05-03T09:28:28.913Z,11.20
2019-05-03T09:30:57.530Z,11.50
2019-05-03T09:33:27.916Z,11.50
2019-05-03T09:35:58.245Z,11.30
2019-05-03T09:38:28.800Z,11.30
2019-05-03T09:40:59.204Z,11.40
2019-05-03T09:43:29.436Z,11.70
2019-05-03T09:45:59.727Z,11.70
2019-05-03T09:48:30.443Z,12.00
2019-05-03T09:51:01.560Z,11.70
2019-05-03T09:53:36.151Z,11.70
2019-05-03T09:56:06.792Z,11.60
2019-05-03T09:58:38.219Z,11.60
2019-05-03T10:01:08.944Z,11.50
2019-05-03T10:03:39.217Z,11.70
2019-05-03T10:06:09.490Z,11.60
2019-05-03T10:08:40.151Z,11.40
2019-05-03T10:11:10.519Z,11.70
2019-05-03T10:13:41.900Z,11.60
2019-05-03T10:16:15.610Z,11.60
2019-05-03T10:18:46.168Z,12.10
2019-05-03T10:21:16.771Z,12.30
2019-05-03T10:23:47.115Z,12.10
2019-05-03T10:26:18.092Z,12.90
2019-05-03T10:28:48.336Z,12.40
2019-05-03T10:31:18.540Z,12.30
2019-05-03T10:33:54.134Z,12.30
2019-05-03T10:36:25.037Z,12.30
2019-05-03T10:38:56.199Z,12.40
2019-05-03T10:41:26.694Z,12.30
2019-05-03T10:43:57.224Z,12.40
2019-05-03T10:46:27.522Z,12.70
2019-05-03T10:48:57.831Z,12.50
2019-05-03T10:51:30.789Z,12.60
2019-05-03T10:54:01.601Z,12.60
2019-05-03T10:56:49.831Z,12.40
2019-05-03T10:59:21.254Z,12.70
2019-05-03T11:02:13.541Z,13.00
2019-05-03T11:04:46.238Z,12.40
2019-05-03T11:07:16.247Z,12.10
2019-05-03T11:09:49.716Z,11.90
2019-05-03T11:12:18.571Z,12.00
2019-05-03T11:14:48.958Z,12.00
2019-05-03T11:17:20.009Z,12.10
2019-05-03T11:19:50.623Z,12.50
2019-05-03T11:22:21.033Z,12.80
2019-05-03T11:24:51.756Z,12.70
2019-05-03T11:27:26.983Z,12.60
2019-05-03T11:29:59.234Z,12.30
2019-05-03T11:32:55.625Z,12.20
2019-05-03T11:35:44.653Z,12.30
2019-05-03T11:38:25.429Z,12.10
2019-05-03T11:40:56.032Z,11.90
2019-05-03T11:43:26.775Z,11.90
2019-05-03T11:45:57.107Z,12.00
2019-05-03T11:48:27.413Z,12.10
2019-05-03T11:50:57.833Z,12.40
2019-05-03T11:53:28.158Z,12.20
2019-05-03T11:55:59.034Z,12.40
2019-05-03T11:58:29.673Z,12.40
2019-05-03T12:01:20.164Z,12.40
2019-05-03T12:03:55.804Z,12.30
2019-05-03T12:06:26.588Z,12.20
2019-05-03T12:08:57.231Z,12.20
2019-05-03T12:11:29.076Z,12.10
2019-05-03T12:14:12.410Z,12.10
2019-05-03T12:19:28.365Z,12.50
2019-05-03T12:21:54.473Z,12.30
2019-05-03T12:24:26.747Z,12.30
2019-05-03T12:26:57.840Z,12.10
2019-05-03T12:29:28.988Z,12.00
2019-05-03T12:31:59.246Z,12.20
2019-05-03T12:34:29.561Z,12.10
2019-05-03T12:36:59.891Z,12.40
2019-05-03T12:39:30.849Z,12.20
2019-05-03T12:42:01.358Z,12.20
2019-05-03T12:44:31.651Z,12.10
2019-05-03T12:47:02.667Z,12.10
2019-05-03T12:49:35.585Z,12.40
2019-05-03T12:52:05.451Z,12.20
2019-05-03T12:54:36.209Z,12.50
2019-05-03T12:57:06.837Z,12.20
2019-05-03T12:59:48.986Z,12.10
2019-05-03T13:02:36.408Z,12.50
2019-05-03T13:05:07.040Z,12.40
2019-05-03T13:07:48.206Z,12.20
2019-05-03T13:10:22.715Z,12.30
2019-05-03T13:12:53.329Z,12.30
2019-05-03T13:15:24.538Z,11.90
2019-05-03T13:17:55.384Z,11.80
2019-05-03T13:20:25.705Z,12.00
2019-05-03T13:22:56.148Z,12.00
2019-05-03T13:25:26.799Z,12.00
2019-05-03T13:27:57.219Z,12.00
2019-05-03T13:30:29.709Z,11.90
2019-05-03T13:33:00.018Z,12.00
2019-05-03T13:35:30.321Z,11.80
2019-05-03T13:38:00.583Z,12.00
2019-05-03T13:40:30.836Z,12.00
2019-05-03T13:43:05.892Z,11.80
2019-05-03T13:45:35.526Z,11.90
2019-05-03T13:48:07.174Z,12.00
2019-05-03T13:50:37.477Z,12.00
2019-05-03T13:53:07.846Z,12.10
2019-05-03T13:55:38.131Z,11.90
2019-05-03T13:58:08.665Z,12.00
2019-05-03T14:00:39.100Z,12.30
2019-05-03T14:03:09.476Z,12.20
2019-05-03T14:05:39.730Z,12.30
2019-05-03T14:08:10.554Z,12.50
2019-05-03T14:10:41.455Z,12.60
2019-05-03T14:13:11.717Z,12.70
2019-05-03T14:15:42.186Z,12.60
2019-05-03T14:18:15.039Z,12.70
2019-05-03T14:21:15.065Z,12.40
2019-05-03T14:24:05.089Z,12.20
2019-05-03T14:26:35.583Z,12.30
2019-05-03T14:29:07.048Z,12.10
2019-05-03T14:31:38.023Z,12.00
2019-05-03T14:34:08.654Z,11.80
2019-05-03T14:36:38.977Z,11.90
2019-05-03T14:39:10.474Z,11.50
2019-05-03T14:41:40.788Z,11.60
2019-05-03T14:44:14.444Z,12.00
2019-05-03T14:46:43.003Z,11.70
2019-05-03T14:49:14.814Z,12.00
2019-05-03T14:51:45.580Z,11.90
2019-05-03T14:54:16.726Z,12.20
2019-05-03T14:57:08.981Z,12.20
2019-05-03T14:59:58.699Z,12.30
2019-05-03T15:02:43.686Z,12.30
2019-05-03T15:05:09.500Z,12.40
2019-05-03T15:07:40.426Z,11.90
2019-05-03T15:10:10.768Z,11.90
2019-05-03T15:12:41.721Z,12.00
2019-05-03T15:15:14.500Z,12.40
2019-05-03T15:17:45.815Z,12.30
2019-05-03T15:20:16.539Z,12.30
2019-05-03T15:22:46.986Z,12.30
2019-05-03T15:25:17.763Z,12.40
2019-05-03T15:27:48.639Z,12.70
2019-05-03T15:30:19.596Z,12.60
2019-05-03T15:32:57.854Z,12.70
2019-05-03T15:35:22.246Z,12.60
2019-05-03T15:37:53.007Z,12.70
2019-05-03T15:40:24.992Z,12.90
2019-05-03T15:43:02.493Z,12.70
2019-05-03T15:45:45.172Z,12.40
2019-05-03T15:48:21.060Z,12.20
2019-05-03T15:50:51.441Z,12.10
2019-05-03T15:53:21.864Z,12.10
2019-05-03T15:55:52.520Z,12.00
2019-05-03T15:58:24.684Z,11.80
2019-05-03T16:00:55.535Z,11.70
2019-05-03T16:03:26.204Z,12.00
2019-05-03T16:05:56.927Z,12.00
2019-05-03T16:08:27.530Z,12.00
2019-05-03T16:10:57.700Z,11.80
2019-05-03T16:13:28.222Z,12.00
2019-05-03T16:15:58.944Z,12.00
2019-05-03T16:18:29.702Z,12.20
2019-05-03T16:21:00.334Z,12.10
2019-05-03T16:23:30.776Z,11.90
2019-05-03T16:26:01.440Z,12.00
2019-05-03T16:28:46.459Z,11.90
2019-05-03T16:31:19.454Z,11.90
2019-05-03T16:33:50.269Z,12.00
2019-05-03T16:36:20.532Z,11.90
2019-05-03T16:38:50.961Z,11.90
2019-05-03T16:41:21.498Z,11.80
2019-05-03T16:43:52.038Z,11.90
2019-05-03T16:46:22.731Z,12.00
2019-05-03T16:48:53.369Z,12.10
2019-05-03T16:51:25.288Z,11.90
2019-05-03T16:53:56.098Z,11.90
2019-05-03T16:56:26.699Z,11.90
2019-05-03T16:58:57.414Z,11.80
2019-05-03T17:01:27.702Z,12.00
2019-05-03T17:04:17.014Z,12.00
2019-05-03T17:07:05.513Z,12.10
2019-05-03T17:09:46.948Z,11.80
2019-05-03T17:12:27.671Z,11.60
2019-05-03T17:14:58.093Z,11.70
2019-05-03T17:17:28.681Z,12.00
2019-05-03T17:19:59.470Z,12.00
2019-05-03T17:22:31.406Z,12.00
2019-05-03T17:25:01.843Z,11.80
2019-05-03T17:27:34.008Z,11.70
2019-05-03T17:30:05.071Z,11.70
2019-05-03T17:32:35.475Z,11.70
2019-05-03T17:35:06.169Z,11.70
2019-05-03T17:37:36.756Z,11.60
2019-05-03T17:40:29.783Z,11.40
2019-05-03T17:43:09.385Z,11.70
2019-05-03T17:45:45.335Z,11.50
2019-05-03T17:48:16.355Z,11.40
2019-05-03T17:50:46.675Z,11.20
2019-05-03T17:53:38.652Z,11.30
2019-05-03T17:56:32.112Z,11.40
2019-05-03T17:59:06.085Z,11.30
2019-05-03T18:01:55.420Z,11.30
2019-05-03T18:04:44.635Z,11.40
2019-05-03T18:07:34.911Z,11.20
2019-05-03T18:10:06.227Z,11.10
2019-05-03T18:12:36.602Z,10.90
2019-05-03T18:15:07.482Z,11.00
2019-05-03T18:17:38.694Z,11.10
2019-05-03T18:20:09.824Z,11.00
2019-05-03T18:22:40.441Z,10.80
2019-05-03T18:25:11.238Z,10.80
2019-05-03T18:27:41.938Z,10.80
2019-05-03T18:30:12.526Z,11.10
2019-05-03T18:32:42.861Z,10.80
2019-05-03T18:35:15.312Z,10.80
2019-05-03T18:37:47.587Z,10.90
2019-05-03T18:40:17.893Z,11.00
2019-05-03T18:42:52.716Z,10.80
2019-05-03T18:45:32.092Z,10.50
2019-05-03T18:48:04.860Z,10.70
2019-05-03T18:50:35.410Z,10.60
2019-05-03T18:53:06.055Z,10.70
2019-05-03T18:55:36.326Z,10.70
2019-05-03T18:58:07.243Z,10.70
2019-05-03T19:00:37.814Z,10.60
2019-05-03T19:03:08.432Z,10.40
2019-05-03T19:05:40.692Z,10.60
2019-05-03T19:08:19.628Z,10.40
2019-05-03T19:10:55.179Z,10.40
2019-05-03T19:13:47.382Z,10.40
2019-05-03T19:16:31.758Z,10.40
2019-05-03T19:19:02.144Z,10.40
2019-05-03T19:21:32.421Z,10.30
2019-05-03T19:24:04.724Z,10.10
2019-05-03T19:26:35.275Z,10.20
2019-05-03T19:29:05.868Z,10.10
2019-05-03T19:31:36.383Z,10.50
2019-05-03T19:34:07.012Z,10.40
2019-05-03T19:36:37.405Z,10.20
2019-05-03T19:39:10.767Z,10.30
2019-05-03T19:41:41.080Z,10.10
2019-05-03T19:44:11.618Z,10.10
2019-05-03T19:46:41.833Z,9.90
2019-05-03T19:49:12.434Z,9.90
2019-05-03T19:51:42.697Z,9.90
2019-05-03T19:54:14.685Z,9.90
2019-05-03T19:56:46.864Z,10.10
2019-05-03T19:59:36.119Z,10.10
2019-05-03T20:02:15.225Z,10.10
2019-05-03T20:05:14.953Z,10.10
2019-05-03T20:08:05.055Z,9.90
2019-05-03T20:10:35.341Z,9.60
2019-05-03T20:13:06.245Z,9.60
2019-05-03T20:15:36.990Z,9.80
2019-05-03T20:18:07.634Z,9.80
2019-05-03T20:20:38.026Z,9.80
2019-05-03T20:23:08.677Z,10.00
2019-05-03T20:25:38.930Z,9.80
2019-05-03T20:28:09.197Z,9.60
2019-05-03T20:30:39.366Z,9.60
2019-05-03T20:33:09.991Z,9.80
2019-05-03T20:35:40.406Z,10.10
2019-05-03T20:38:10.623Z,9.60
2019-05-03T20:40:41.034Z,9.50
2019-05-03T20:43:21.286Z,9.50
2019-05-03T20:46:10.705Z,9.50
2019-05-03T20:48:44.804Z,9.70
2019-05-03T20:51:15.702Z,9.50
2019-05-03T20:53:46.291Z,9.50
2019-05-03T20:56:16.851Z,9.30
2019-05-03T20:58:47.284Z,9.00
2019-05-03T21:01:17.846Z,9.30
2019-05-03T21:03:48.143Z,9.00
2019-05-03T21:06:18.722Z,9.10
2019-05-03T21:08:53.152Z,8.70
2019-05-03T21:11:21.635Z,8.90
2019-05-03T21:13:51.853Z,8.60
2019-05-03T21:16:41.801Z,8.60
2019-05-03T21:19:24.720Z,8.40
2019-05-03T21:22:10.333Z,8.20
2019-05-03T21:24:46.049Z,8.50
2019-05-03T21:27:16.711Z,7.90
2019-05-03T21:29:55.172Z,8.00
2019-05-03T21:32:25.994Z,8.10
2019-05-03T21:34:56.251Z,7.80
2019-05-03T21:37:27.233Z,8.00
2019-05-03T21:39:57.617Z,8.00
2019-05-03T21:42:27.885Z,7.80
2019-05-03T21:44:58.194Z,7.90
2019-05-03T21:47:38.797Z,7.80
2019-05-03T21:50:14.631Z,7.60
2019-05-03T21:52:45.766Z,7.80
2019-05-03T21:55:16.131Z,7.70
2019-05-03T21:57:46.756Z,7.60
2019-05-03T22:00:18.095Z,7.50
2019-05-03T22:02:48.367Z,7.70
2019-05-03T22:05:18.657Z,7.60
2019-05-03T22:07:48.915Z,7.50
2019-05-03T22:10:19.276Z,7.50
2019-05-03T22:12:49.859Z,7.50
2019-05-03T22:15:31.601Z,7.90
2019-05-03T22:18:17.549Z,7.60
2019-05-03T22:21:05.789Z,7.60
2019-05-03T22:23:56.181Z,7.50
2019-05-03T22:26:45.261Z,7.60
2019-05-03T22:29:17.252Z,7.50
2019-05-03T22:31:47.980Z,7.30
2019-05-03T22:34:18.293Z,7.40
2019-05-03T22:36:48.957Z,7.40
2019-05-03T22:39:19.589Z,7.20
2019-05-03T22:41:49.843Z,7.10
2019-05-03T22:44:20.478Z,7.00
2019-05-03T22:46:50.748Z,7.10
2019-05-03T22:49:21.645Z,7.20
2019-05-03T22:51:51.862Z,7.20
2019-05-03T22:54:22.106Z,7.10
2019-05-03T22:56:52.440Z,7.10
2019-05-03T22:59:22.682Z,7.00
2019-05-03T23:01:54.622Z,6.80
2019-05-03T23:04:25.584Z,6.80
2019-05-03T23:06:56.028Z,6.80
2019-05-03T23:09:26.255Z,6.70
2019-05-03T23:11:56.539Z,6.50
2019-05-03T23:14:27.467Z,6.80
2019-05-03T23:16:57.840Z,6.90
2019-05-03T23:19:28.525Z,6.80
2019-05-03T23:22:12.952Z,7.00
2019-05-03T23:24:43.256Z,7.00
2019-05-03T23:27:14.460Z,6.80
2019-05-03T23:29:45.422Z,6.60
2019-05-03T23:32:16.185Z,6.60
2019-05-03T23:34:46.530Z,6.60
2019-05-03T23:37:17.113Z,6.80
2019-05-03T23:39:47.411Z,6.60
2019-05-03T23:42:18.313Z,6.90
2019-05-03T23:44:48.602Z,6.70
2019-05-03T23:47:36.447Z,6.80
2019-05-03T23:50:08.928Z,6.60
2019-05-03T23:52:39.499Z,6.80
2019-05-03T23:55:39.830Z,6.70
2019-05-03T23:58:10.166Z,6.80
